sensor_id;sensor_type;location;lat;lon;timestamp;pressure;altitude;pressure_sealevel;temperature;humidity
25080;BME280;13071;48.868;9.996;2022-12-18T00:02:14;97587.78;;;-6.40;89.86
25080;BME280;13071;48.868;9.996;2022-12-18T00:04:41;97594.63;;;-6.46;89.23
25080;BME280;13071;48.868;9.996;2022-12-18T00:07:09;97584.94;;;-6.52;89.41
25080;BME280;13071;48.868;9.996;2022-12-18T00:09:36;97585.34;;;-6.48;89.25
25080;BME280;13071;48.868;9.996;2022-12-18T00:12:03;97596.47;;;-6.53;89.10
25080;BME280;13071;48.868;9.996;2022-12-18T00:14:29;97593.22;;;-6.62;89.38
25080;BME280;13071;48.868;9.996;2022-12-18T00:16:56;97584.03;;;-6.79;89.27
25080;BME280;13071;48.868;9.996;2022-12-18T00:19:25;97580.13;;;-6.89;89.37
25080;BME280;13071;48.868;9.996;2022-12-18T00:21:52;97591.31;;;-6.81;88.83
25080;BME280;13071;48.868;9.996;2022-12-18T00:24:20;97596.88;;;-7.04;87.66
25080;BME280;13071;48.868;9.996;2022-12-18T00:26:47;97605.00;;;-6.99;87.81
25080;BME280;13071;48.868;9.996;2022-12-18T00:29:13;97614.50;;;-6.97;86.75
25080;BME280;13071;48.868;9.996;2022-12-18T00:31:41;97620.38;;;-7.02;86.86
25080;BME280;13071;48.868;9.996;2022-12-18T00:34:09;97612.47;;;-7.02;86.96
25080;BME280;13071;48.868;9.996;2022-12-18T00:36:37;97618.28;;;-7.13;86.93
25080;BME280;13071;48.868;9.996;2022-12-18T00:39:04;97617.66;;;-7.15;87.20
25080;BME280;13071;48.868;9.996;2022-12-18T00:41:33;97621.84;;;-7.27;86.87
25080;BME280;13071;48.868;9.996;2022-12-18T00:44:18;97613.38;;;-7.23;87.10
25080;BME280;13071;48.868;9.996;2022-12-18T00:46:45;97615.13;;;-7.30;86.40
25080;BME280;13071;48.868;9.996;2022-12-18T00:49:12;97613.28;;;-7.36;86.96
25080;BME280;13071;48.868;9.996;2022-12-18T00:51:39;97616.28;;;-7.39;86.67
25080;BME280;13071;48.868;9.996;2022-12-18T00:54:06;97612.19;;;-7.48;86.90
25080;BME280;13071;48.868;9.996;2022-12-18T00:56:35;97611.03;;;-7.39;86.73
25080;BME280;13071;48.868;9.996;2022-12-18T00:59:02;97609.38;;;-7.47;87.73
25080;BME280;13071;48.868;9.996;2022-12-18T01:01:28;97606.75;;;-7.47;87.81
25080;BME280;13071;48.868;9.996;2022-12-18T01:03:55;97608.31;;;-7.52;88.45
25080;BME280;13071;48.868;9.996;2022-12-18T01:06:23;97607.75;;;-7.48;88.56
25080;BME280;13071;48.868;9.996;2022-12-18T01:08:49;97604.34;;;-7.42;87.48
25080;BME280;13071;48.868;9.996;2022-12-18T01:11:18;97593.22;;;-7.44;87.97
25080;BME280;13071;48.868;9.996;2022-12-18T01:13:47;97591.63;;;-7.38;87.69
25080;BME280;13071;48.868;9.996;2022-12-18T01:16:14;97596.28;;;-7.40;88.35
25080;BME280;13071;48.868;9.996;2022-12-18T01:18:41;97589.28;;;-7.26;87.81
25080;BME280;13071;48.868;9.996;2022-12-18T01:21:09;97593.97;;;-7.50;87.45
25080;BME280;13071;48.868;9.996;2022-12-18T01:23:36;97596.56;;;-7.56;87.64
25080;BME280;13071;48.868;9.996;2022-12-18T01:26:07;97597.56;;;-7.57;88.72
25080;BME280;13071;48.868;9.996;2022-12-18T01:28:34;97610.97;;;-7.52;88.65
25080;BME280;13071;48.868;9.996;2022-12-18T01:31:18;97608.59;;;-7.68;88.17
25080;BME280;13071;48.868;9.996;2022-12-18T01:33:48;97614.75;;;-7.55;88.42
25080;BME280;13071;48.868;9.996;2022-12-18T01:36:18;97625.28;;;-7.55;88.38
25080;BME280;13071;48.868;9.996;2022-12-18T01:38:44;97631.09;;;-7.66;87.81
25080;BME280;13071;48.868;9.996;2022-12-18T01:41:12;97627.38;;;-7.50;87.69
25080;BME280;13071;48.868;9.996;2022-12-18T01:43:48;97624.00;;;-7.65;87.86
25080;BME280;13071;48.868;9.996;2022-12-18T01:46:17;97619.84;;;-7.81;87.87
25080;BME280;13071;48.868;9.996;2022-12-18T01:48:46;97625.66;;;-7.86;88.32
25080;BME280;13071;48.868;9.996;2022-12-18T01:51:14;97635.47;;;-7.73;88.12
25080;BME280;13071;48.868;9.996;2022-12-18T01:53:43;97634.28;;;-7.70;87.49
25080;BME280;13071;48.868;9.996;2022-12-18T01:56:13;97633.34;;;-7.84;87.71
25080;BME280;13071;48.868;9.996;2022-12-18T01:58:46;97629.47;;;-7.88;86.51
25080;BME280;13071;48.868;9.996;2022-12-18T02:01:15;97628.09;;;-7.84;87.40
25080;BME280;13071;48.868;9.996;2022-12-18T02:03:44;97633.25;;;-7.97;88.01
25080;BME280;13071;48.868;9.996;2022-12-18T02:06:15;97633.91;;;-7.89;88.31
25080;BME280;13071;48.868;9.996;2022-12-18T02:08:48;97626.25;;;-7.90;88.87
25080;BME280;13071;48.868;9.996;2022-12-18T02:11:20;97623.53;;;-7.97;88.67
25080;BME280;13071;48.868;9.996;2022-12-18T02:13:54;97625.25;;;-8.10;88.75
25080;BME280;13071;48.868;9.996;2022-12-18T02:16:29;97629.25;;;-8.14;89.03
25080;BME280;13071;48.868;9.996;2022-12-18T02:19:05;97621.13;;;-8.19;88.06
25080;BME280;13071;48.868;9.996;2022-12-18T02:21:40;97616.72;;;-8.12;89.07
25080;BME280;13071;48.868;9.996;2022-12-18T02:24:18;97628.44;;;-8.15;88.25
25080;BME280;13071;48.868;9.996;2022-12-18T02:26:55;97615.72;;;-8.11;88.02
25080;BME280;13071;48.868;9.996;2022-12-18T02:29:24;97622.72;;;-8.18;88.46
25080;BME280;13071;48.868;9.996;2022-12-18T02:31:54;97615.78;;;-8.26;88.11
25080;BME280;13071;48.868;9.996;2022-12-18T02:34:26;97626.25;;;-8.33;89.38
25080;BME280;13071;48.868;9.996;2022-12-18T02:36:55;97623.28;;;-8.29;89.53
25080;BME280;13071;48.868;9.996;2022-12-18T02:39:25;97637.31;;;-8.37;89.60
25080;BME280;13071;48.868;9.996;2022-12-18T02:41:54;97643.00;;;-8.34;89.12
25080;BME280;13071;48.868;9.996;2022-12-18T02:44:21;97641.66;;;-8.29;89.59
25080;BME280;13071;48.868;9.996;2022-12-18T02:46:50;97639.94;;;-8.37;88.90
25080;BME280;13071;48.868;9.996;2022-12-18T02:49:26;97640.38;;;-8.34;88.18
25080;BME280;13071;48.868;9.996;2022-12-18T02:52:02;97642.25;;;-8.27;88.35
25080;BME280;13071;48.868;9.996;2022-12-18T02:54:40;97639.94;;;-8.37;88.50
25080;BME280;13071;48.868;9.996;2022-12-18T02:57:18;97636.97;;;-8.27;87.40
25080;BME280;13071;48.868;9.996;2022-12-18T02:59:52;97645.28;;;-8.31;87.05
25080;BME280;13071;48.868;9.996;2022-12-18T03:02:25;97649.75;;;-8.46;88.47
25080;BME280;13071;48.868;9.996;2022-12-18T03:05:00;97654.84;;;-8.44;88.31
25080;BME280;13071;48.868;9.996;2022-12-18T03:07:35;97648.38;;;-8.42;87.08
25080;BME280;13071;48.868;9.996;2022-12-18T03:10:05;97657.63;;;-8.46;86.87
25080;BME280;13071;48.868;9.996;2022-12-18T03:12:35;97651.56;;;-8.46;87.82
25080;BME280;13071;48.868;9.996;2022-12-18T03:15:08;97664.44;;;-8.51;87.34
25080;BME280;13071;48.868;9.996;2022-12-18T03:17:39;97671.94;;;-8.48;87.99
25080;BME280;13071;48.868;9.996;2022-12-18T03:20:11;97664.31;;;-8.43;88.11
25080;BME280;13071;48.868;9.996;2022-12-18T03:22:42;97675.75;;;-8.51;89.57
25080;BME280;13071;48.868;9.996;2022-12-18T03:25:13;97668.25;;;-8.54;88.39
25080;BME280;13071;48.868;9.996;2022-12-18T03:27:46;97661.69;;;-8.43;88.50
25080;BME280;13071;48.868;9.996;2022-12-18T03:30:15;97663.72;;;-8.60;89.15
25080;BME280;13071;48.868;9.996;2022-12-18T03:32:46;97671.66;;;-8.53;89.66
25080;BME280;13071;48.868;9.996;2022-12-18T03:35:16;97660.47;;;-8.62;89.56
25080;BME280;13071;48.868;9.996;2022-12-18T03:37:45;97652.97;;;-8.65;90.90
25080;BME280;13071;48.868;9.996;2022-12-18T03:40:11;97654.59;;;-8.64;91.74
25080;BME280;13071;48.868;9.996;2022-12-18T03:42:45;97654.97;;;-8.67;90.34
25080;BME280;13071;48.868;9.996;2022-12-18T03:45:19;97654.00;;;-8.81;91.19
25080;BME280;13071;48.868;9.996;2022-12-18T03:47:55;97657.88;;;-8.77;89.99
25080;BME280;13071;48.868;9.996;2022-12-18T03:50:32;97648.84;;;-8.74;90.95
25080;BME280;13071;48.868;9.996;2022-12-18T03:53:08;97662.56;;;-8.72;91.15
25080;BME280;13071;48.868;9.996;2022-12-18T03:55:37;97659.47;;;-8.61;90.65
25080;BME280;13071;48.868;9.996;2022-12-18T03:58:07;97649.25;;;-8.56;90.15
25080;BME280;13071;48.868;9.996;2022-12-18T04:00:35;97657.03;;;-8.62;90.62
25080;BME280;13071;48.868;9.996;2022-12-18T04:03:03;97655.69;;;-8.73;90.19
25080;BME280;13071;48.868;9.996;2022-12-18T04:05:32;97667.28;;;-8.82;89.54
25080;BME280;13071;48.868;9.996;2022-12-18T04:08:00;97666.28;;;-8.81;90.55
25080;BME280;13071;48.868;9.996;2022-12-18T04:10:28;97670.34;;;-8.64;90.98
25080;BME280;13071;48.868;9.996;2022-12-18T04:12:56;97660.56;;;-8.55;89.77
25080;BME280;13071;48.868;9.996;2022-12-18T04:15:24;97668.78;;;-8.44;90.15
25080;BME280;13071;48.868;9.996;2022-12-18T04:17:51;97673.00;;;-8.43;90.20
25080;BME280;13071;48.868;9.996;2022-12-18T04:20:17;97666.94;;;-8.43;90.27
25080;BME280;13071;48.868;9.996;2022-12-18T04:22:44;97661.91;;;-8.45;91.03
25080;BME280;13071;48.868;9.996;2022-12-18T04:25:12;97657.19;;;-8.49;90.98
25080;BME280;13071;48.868;9.996;2022-12-18T04:27:39;97654.56;;;-8.49;90.20
25080;BME280;13071;48.868;9.996;2022-12-18T04:30:07;97657.25;;;-8.43;89.09
25080;BME280;13071;48.868;9.996;2022-12-18T04:32:35;97660.63;;;-8.49;89.24
25080;BME280;13071;48.868;9.996;2022-12-18T04:35:02;97664.88;;;-8.48;89.39
25080;BME280;13071;48.868;9.996;2022-12-18T04:37:29;97670.63;;;-8.38;88.66
25080;BME280;13071;48.868;9.996;2022-12-18T04:39:56;97666.16;;;-8.44;88.45
25080;BME280;13071;48.868;9.996;2022-12-18T04:42:22;97671.31;;;-8.50;88.44
25080;BME280;13071;48.868;9.996;2022-12-18T04:44:49;97663.22;;;-8.34;89.39
25080;BME280;13071;48.868;9.996;2022-12-18T04:47:15;97668.66;;;-8.36;88.97
25080;BME280;13071;48.868;9.996;2022-12-18T04:49:43;97679.88;;;-8.42;88.51
25080;BME280;13071;48.868;9.996;2022-12-18T04:52:10;97683.06;;;-8.46;90.26
25080;BME280;13071;48.868;9.996;2022-12-18T04:54:36;97692.84;;;-8.40;89.34
25080;BME280;13071;48.868;9.996;2022-12-18T04:57:03;97689.66;;;-8.36;91.95
25080;BME280;13071;48.868;9.996;2022-12-18T04:59:29;97689.16;;;-8.24;91.37
25080;BME280;13071;48.868;9.996;2022-12-18T05:01:56;97684.06;;;-8.26;91.25
25080;BME280;13071;48.868;9.996;2022-12-18T05:04:23;97690.66;;;-8.15;91.75
25080;BME280;13071;48.868;9.996;2022-12-18T05:06:50;97686.09;;;-8.07;90.72
25080;BME280;13071;48.868;9.996;2022-12-18T05:09:17;97676.22;;;-8.05;91.35
25080;BME280;13071;48.868;9.996;2022-12-18T05:11:44;97677.03;;;-8.04;90.43
25080;BME280;13071;48.868;9.996;2022-12-18T05:14:11;97684.50;;;-8.22;90.50
25080;BME280;13071;48.868;9.996;2022-12-18T05:16:38;97689.75;;;-8.22;91.09
25080;BME280;13071;48.868;9.996;2022-12-18T05:19:05;97672.94;;;-8.28;91.12
25080;BME280;13071;48.868;9.996;2022-12-18T05:21:31;97684.25;;;-8.27;91.30
25080;BME280;13071;48.868;9.996;2022-12-18T05:23:59;97683.69;;;-8.29;90.84
25080;BME280;13071;48.868;9.996;2022-12-18T05:26:26;97690.22;;;-8.40;89.83
25080;BME280;13071;48.868;9.996;2022-12-18T05:28:52;97692.56;;;-8.45;90.61
25080;BME280;13071;48.868;9.996;2022-12-18T05:31:19;97695.38;;;-8.47;90.07
25080;BME280;13071;48.868;9.996;2022-12-18T05:33:45;97689.53;;;-8.49;89.82
25080;BME280;13071;48.868;9.996;2022-12-18T05:36:12;97687.94;;;-8.43;89.33
25080;BME280;13071;48.868;9.996;2022-12-18T05:38:38;97683.59;;;-8.36;89.01
25080;BME280;13071;48.868;9.996;2022-12-18T05:41:07;97682.34;;;-8.40;90.54
25080;BME280;13071;48.868;9.996;2022-12-18T05:43:35;97684.78;;;-8.39;88.71
25080;BME280;13071;48.868;9.996;2022-12-18T05:46:06;97679.41;;;-8.31;88.90
25080;BME280;13071;48.868;9.996;2022-12-18T05:48:33;97669.72;;;-8.30;90.32
25080;BME280;13071;48.868;9.996;2022-12-18T05:51:04;97677.97;;;-8.33;89.65
25080;BME280;13071;48.868;9.996;2022-12-18T05:53:32;97675.78;;;-8.29;90.21
25080;BME280;13071;48.868;9.996;2022-12-18T05:56:00;97687.84;;;-8.35;90.49
25080;BME280;13071;48.868;9.996;2022-12-18T05:58:29;97680.97;;;-8.36;91.08
25080;BME280;13071;48.868;9.996;2022-12-18T06:00:56;97679.72;;;-8.40;90.87
25080;BME280;13071;48.868;9.996;2022-12-18T06:03:22;97682.91;;;-8.45;90.18
25080;BME280;13071;48.868;9.996;2022-12-18T06:05:49;97693.19;;;-8.43;89.67
25080;BME280;13071;48.868;9.996;2022-12-18T06:08:16;97693.19;;;-8.43;89.07
25080;BME280;13071;48.868;9.996;2022-12-18T06:10:50;97695.22;;;-8.45;89.53
25080;BME280;13071;48.868;9.996;2022-12-18T06:13:17;97701.34;;;-8.38;89.76
25080;BME280;13071;48.868;9.996;2022-12-18T06:15:45;97697.28;;;-8.41;89.69
25080;BME280;13071;48.868;9.996;2022-12-18T06:18:12;97701.72;;;-8.41;89.39
25080;BME280;13071;48.868;9.996;2022-12-18T06:20:38;97693.72;;;-8.33;89.94
25080;BME280;13071;48.868;9.996;2022-12-18T06:23:06;97702.53;;;-8.41;89.58
25080;BME280;13071;48.868;9.996;2022-12-18T06:25:33;97707.13;;;-8.43;88.99
25080;BME280;13071;48.868;9.996;2022-12-18T06:27:59;97712.31;;;-8.49;89.49
25080;BME280;13071;48.868;9.996;2022-12-18T06:30:26;97707.41;;;-8.52;89.04
25080;BME280;13071;48.868;9.996;2022-12-18T06:32:54;97710.25;;;-8.54;89.19
25080;BME280;13071;48.868;9.996;2022-12-18T06:35:20;97706.00;;;-8.55;88.26
25080;BME280;13071;48.868;9.996;2022-12-18T06:37:47;97708.78;;;-8.56;88.38
25080;BME280;13071;48.868;9.996;2022-12-18T06:40:14;97708.69;;;-8.48;89.15
25080;BME280;13071;48.868;9.996;2022-12-18T06:42:40;97706.19;;;-8.71;88.79
25080;BME280;13071;48.868;9.996;2022-12-18T06:45:08;97705.28;;;-8.63;89.72
25080;BME280;13071;48.868;9.996;2022-12-18T06:47:34;97696.09;;;-8.53;88.95
25080;BME280;13071;48.868;9.996;2022-12-18T06:50:03;97697.31;;;-8.55;88.39
25080;BME280;13071;48.868;9.996;2022-12-18T06:52:31;97696.84;;;-8.44;87.52
25080;BME280;13071;48.868;9.996;2022-12-18T06:54:58;97700.38;;;-8.66;87.29
25080;BME280;13071;48.868;9.996;2022-12-18T06:57:24;97698.69;;;-8.59;87.57
25080;BME280;13071;48.868;9.996;2022-12-18T06:59:51;97701.66;;;-8.92;88.25
25080;BME280;13071;48.868;9.996;2022-12-18T07:02:18;97716.41;;;-8.91;87.93
25080;BME280;13071;48.868;9.996;2022-12-18T07:04:44;97722.75;;;-9.00;88.42
25080;BME280;13071;48.868;9.996;2022-12-18T07:07:12;97731.34;;;-8.77;88.11
25080;BME280;13071;48.868;9.996;2022-12-18T07:09:39;97727.72;;;-8.76;88.76
25080;BME280;13071;48.868;9.996;2022-12-18T07:12:05;97738.38;;;-8.62;87.39
25080;BME280;13071;48.868;9.996;2022-12-18T07:14:33;97734.06;;;-8.55;86.55
25080;BME280;13071;48.868;9.996;2022-12-18T07:16:59;97734.78;;;-8.61;85.64
25080;BME280;13071;48.868;9.996;2022-12-18T07:19:26;97742.09;;;-9.01;86.89
25080;BME280;13071;48.868;9.996;2022-12-18T07:21:52;97748.06;;;-8.78;86.75
25080;BME280;13071;48.868;9.996;2022-12-18T07:24:20;97746.19;;;-8.69;87.23
25080;BME280;13071;48.868;9.996;2022-12-18T07:26:47;97756.59;;;-8.61;86.64
25080;BME280;13071;48.868;9.996;2022-12-18T07:29:14;97756.31;;;-8.66;88.09
25080;BME280;13071;48.868;9.996;2022-12-18T07:31:40;97749.09;;;-8.49;86.81
25080;BME280;13071;48.868;9.996;2022-12-18T07:34:10;97755.88;;;-8.55;85.14
25080;BME280;13071;48.868;9.996;2022-12-18T07:36:38;97756.41;;;-8.45;85.70
25080;BME280;13071;48.868;9.996;2022-12-18T07:39:04;97765.81;;;-8.36;85.90
25080;BME280;13071;48.868;9.996;2022-12-18T07:41:33;97773.94;;;-8.31;85.67
25080;BME280;13071;48.868;9.996;2022-12-18T07:43:59;97775.19;;;-8.26;84.76
25080;BME280;13071;48.868;9.996;2022-12-18T07:46:26;97784.75;;;-8.40;86.48
25080;BME280;13071;48.868;9.996;2022-12-18T07:48:53;97772.72;;;-8.49;86.88
25080;BME280;13071;48.868;9.996;2022-12-18T07:51:19;97783.56;;;-8.52;87.08
25080;BME280;13071;48.868;9.996;2022-12-18T07:53:46;97780.25;;;-8.25;87.29
25080;BME280;13071;48.868;9.996;2022-12-18T07:56:13;97773.47;;;-7.98;86.23
25080;BME280;13071;48.868;9.996;2022-12-18T07:58:41;97768.88;;;-8.32;87.00
25080;BME280;13071;48.868;9.996;2022-12-18T08:01:11;97771.19;;;-8.22;88.53
25080;BME280;13071;48.868;9.996;2022-12-18T08:03:38;97773.31;;;-7.97;87.38
25080;BME280;13071;48.868;9.996;2022-12-18T08:06:07;97770.59;;;-8.03;87.62
25080;BME280;13071;48.868;9.996;2022-12-18T08:08:35;97772.00;;;-7.86;86.18
25080;BME280;13071;48.868;9.996;2022-12-18T08:11:02;97765.81;;;-7.78;85.50
25080;BME280;13071;48.868;9.996;2022-12-18T08:13:29;97767.78;;;-7.66;85.85
25080;BME280;13071;48.868;9.996;2022-12-18T08:15:57;97769.66;;;-7.60;85.66
25080;BME280;13071;48.868;9.996;2022-12-18T08:18:24;97765.84;;;-7.57;85.06
25080;BME280;13071;48.868;9.996;2022-12-18T08:20:51;97768.97;;;-7.47;84.81
25080;BME280;13071;48.868;9.996;2022-12-18T08:23:17;97760.25;;;-7.69;84.65
25080;BME280;13071;48.868;9.996;2022-12-18T08:25:44;97759.50;;;-7.63;85.19
25080;BME280;13071;48.868;9.996;2022-12-18T08:28:10;97764.19;;;-7.37;84.75
25080;BME280;13071;48.868;9.996;2022-12-18T08:30:37;97756.06;;;-7.21;84.28
25080;BME280;13071;48.868;9.996;2022-12-18T08:33:05;97752.16;;;-7.25;83.56
25080;BME280;13071;48.868;9.996;2022-12-18T08:35:35;97762.13;;;-7.20;83.86
25080;BME280;13071;48.868;9.996;2022-12-18T08:38:01;97750.78;;;-7.21;83.76
25080;BME280;13071;48.868;9.996;2022-12-18T08:40:28;97766.72;;;-7.01;83.70
25080;BME280;13071;48.868;9.996;2022-12-18T08:42:55;97762.06;;;-6.99;83.87
25080;BME280;13071;48.868;9.996;2022-12-18T08:45:35;97761.38;;;-6.86;84.15
25080;BME280;13071;48.868;9.996;2022-12-18T08:48:02;97753.16;;;-6.70;83.82
25080;BME280;13071;48.868;9.996;2022-12-18T08:50:30;97766.31;;;-6.70;83.98
25080;BME280;13071;48.868;9.996;2022-12-18T08:52:57;97770.47;;;-6.55;84.68
25080;BME280;13071;48.868;9.996;2022-12-18T08:55:23;97771.28;;;-6.54;84.30
25080;BME280;13071;48.868;9.996;2022-12-18T08:57:50;97756.72;;;-6.50;83.96
25080;BME280;13071;48.868;9.996;2022-12-18T09:00:17;97763.41;;;-6.47;83.54
25080;BME280;13071;48.868;9.996;2022-12-18T09:02:43;97768.06;;;-6.49;84.45
25080;BME280;13071;48.868;9.996;2022-12-18T09:05:10;97754.75;;;-6.41;84.29
25080;BME280;13071;48.868;9.996;2022-12-18T09:07:38;97751.72;;;-6.38;84.12
25080;BME280;13071;48.868;9.996;2022-12-18T09:10:06;97746.25;;;-6.30;83.50
25080;BME280;13071;48.868;9.996;2022-12-18T09:12:32;97747.72;;;-6.28;83.61
25080;BME280;13071;48.868;9.996;2022-12-18T09:14:59;97750.81;;;-6.18;83.10
25080;BME280;13071;48.868;9.996;2022-12-18T09:17:25;97751.22;;;-6.14;82.68
25080;BME280;13071;48.868;9.996;2022-12-18T09:19:52;97745.53;;;-6.11;83.79
25080;BME280;13071;48.868;9.996;2022-12-18T09:22:19;97749.38;;;-6.14;83.18
25080;BME280;13071;48.868;9.996;2022-12-18T09:24:48;97755.91;;;-5.96;82.61
25080;BME280;13071;48.868;9.996;2022-12-18T09:27:15;97751.88;;;-5.86;82.62
25080;BME280;13071;48.868;9.996;2022-12-18T09:29:41;97750.69;;;-5.77;83.37
25080;BME280;13071;48.868;9.996;2022-12-18T09:32:08;97738.53;;;-5.71;83.49
25080;BME280;13071;48.868;9.996;2022-12-18T09:34:34;97737.09;;;-5.67;83.35
25080;BME280;13071;48.868;9.996;2022-12-18T09:37:01;97738.31;;;-5.76;83.41
25080;BME280;13071;48.868;9.996;2022-12-18T09:39:27;97734.50;;;-5.60;83.01
25080;BME280;13071;48.868;9.996;2022-12-18T09:41:57;97732.03;;;-5.62;82.72
25080;BME280;13071;48.868;9.996;2022-12-18T09:44:25;97735.03;;;-5.85;83.47
25080;BME280;13071;48.868;9.996;2022-12-18T09:47:09;97725.38;;;-5.58;83.34
25080;BME280;13071;48.868;9.996;2022-12-18T09:49:41;97725.31;;;-5.91;84.07
25080;BME280;13071;48.868;9.996;2022-12-18T09:52:16;97723.09;;;-5.94;85.71
25080;BME280;13071;48.868;9.996;2022-12-18T09:54:46;97730.63;;;-5.78;85.94
25080;BME280;13071;48.868;9.996;2022-12-18T09:57:19;97744.63;;;-5.64;86.84
25080;BME280;13071;48.868;9.996;2022-12-18T09:59:51;97742.81;;;-5.50;86.14
25080;BME280;13071;48.868;9.996;2022-12-18T10:02:20;97747.91;;;-5.49;85.86
25080;BME280;13071;48.868;9.996;2022-12-18T10:04:54;97745.47;;;-5.37;85.79
25080;BME280;13071;48.868;9.996;2022-12-18T10:07:29;97748.50;;;-5.53;86.21
25080;BME280;13071;48.868;9.996;2022-12-18T10:10:04;97741.84;;;-5.43;86.12
25080;BME280;13071;48.868;9.996;2022-12-18T10:12:40;97744.88;;;-5.39;86.58
25080;BME280;13071;48.868;9.996;2022-12-18T10:15:16;97744.66;;;-5.38;86.09
25080;BME280;13071;48.868;9.996;2022-12-18T10:17:50;97733.50;;;-5.40;85.78
25080;BME280;13071;48.868;9.996;2022-12-18T10:20:25;97735.09;;;-5.52;87.31
25080;BME280;13071;48.868;9.996;2022-12-18T10:22:57;97736.69;;;-5.71;87.81
25080;BME280;13071;48.868;9.996;2022-12-18T10:25:31;97735.13;;;-5.58;87.66
25080;BME280;13071;48.868;9.996;2022-12-18T10:28:09;97733.06;;;-5.63;87.91
25080;BME280;13071;48.868;9.996;2022-12-18T10:30:38;97735.50;;;-5.55;88.58
25080;BME280;13071;48.868;9.996;2022-12-18T10:33:05;97733.72;;;-5.28;87.78
25080;BME280;13071;48.868;9.996;2022-12-18T10:35:32;97732.09;;;-5.09;87.69
25080;BME280;13071;48.868;9.996;2022-12-18T10:38:03;97720.50;;;-5.15;86.74
25080;BME280;13071;48.868;9.996;2022-12-18T10:40:30;97724.97;;;-5.22;87.43
25080;BME280;13071;48.868;9.996;2022-12-18T10:43:11;97727.41;;;-5.01;86.07
25080;BME280;13071;48.868;9.996;2022-12-18T10:45:38;97724.53;;;-4.86;85.56
25080;BME280;13071;48.868;9.996;2022-12-18T10:48:18;97743.66;;;-4.97;85.92
25080;BME280;13071;48.868;9.996;2022-12-18T10:50:47;97731.50;;;-5.18;87.19
25080;BME280;13071;48.868;9.996;2022-12-18T10:53:19;97731.47;;;-5.11;87.30
25080;BME280;13071;48.868;9.996;2022-12-18T10:55:46;97734.28;;;-4.93;86.75
25080;BME280;13071;48.868;9.996;2022-12-18T10:58:23;97730.22;;;-4.69;86.08
25080;BME280;13071;48.868;9.996;2022-12-18T11:01:07;97734.63;;;-4.50;85.49
25080;BME280;13071;48.868;9.996;2022-12-18T11:03:36;97736.41;;;-4.38;84.72
25080;BME280;13071;48.868;9.996;2022-12-18T11:06:05;97729.75;;;-4.47;84.58
25080;BME280;13071;48.868;9.996;2022-12-18T11:08:33;97736.22;;;-4.36;83.57
25080;BME280;13071;48.868;9.996;2022-12-18T11:10:59;97738.78;;;-4.16;84.19
25080;BME280;13071;48.868;9.996;2022-12-18T11:13:29;97737.38;;;-4.19;83.57
25080;BME280;13071;48.868;9.996;2022-12-18T11:15:57;97740.56;;;-4.04;83.88
25080;BME280;13071;48.868;9.996;2022-12-18T11:18:27;97734.69;;;-4.06;83.02
25080;BME280;13071;48.868;9.996;2022-12-18T11:20:56;97732.97;;;-3.87;83.46
25080;BME280;13071;48.868;9.996;2022-12-18T11:23:24;97734.63;;;-3.93;82.43
25080;BME280;13071;48.868;9.996;2022-12-18T11:25:53;97730.88;;;-3.78;82.82
25080;BME280;13071;48.868;9.996;2022-12-18T11:28:29;97737.25;;;-3.93;82.19
25080;BME280;13071;48.868;9.996;2022-12-18T11:31:17;97727.00;;;-3.76;82.69
25080;BME280;13071;48.868;9.996;2022-12-18T11:33:48;97719.75;;;-3.94;82.70
25080;BME280;13071;48.868;9.996;2022-12-18T11:36:17;97715.34;;;-4.00;82.79
25080;BME280;13071;48.868;9.996;2022-12-18T11:38:45;97716.81;;;-4.17;84.72
25080;BME280;13071;48.868;9.996;2022-12-18T11:41:21;97711.00;;;-3.94;83.79
25080;BME280;13071;48.868;9.996;2022-12-18T11:44:13;97707.81;;;-4.03;83.34
25080;BME280;13071;48.868;9.996;2022-12-18T11:46:46;97703.88;;;-3.94;83.22
25080;BME280;13071;48.868;9.996;2022-12-18T11:49:20;97707.28;;;-3.80;82.89
25080;BME280;13071;48.868;9.996;2022-12-18T11:51:53;97706.56;;;-3.62;81.73
25080;BME280;13071;48.868;9.996;2022-12-18T11:54:22;97711.94;;;-3.75;82.25
25080;BME280;13071;48.868;9.996;2022-12-18T11:56:51;97696.41;;;-4.03;83.18
25080;BME280;13071;48.868;9.996;2022-12-18T11:59:30;97698.63;;;-3.62;82.74
25080;BME280;13071;48.868;9.996;2022-12-18T12:02:09;97691.38;;;-3.73;82.69
25080;BME280;13071;48.868;9.996;2022-12-18T12:04:56;97687.88;;;-3.67;82.55
25080;BME280;13071;48.868;9.996;2022-12-18T12:07:35;97673.44;;;-4.03;82.85
25080;BME280;13071;48.868;9.996;2022-12-18T12:10:18;97668.22;;;-4.16;84.31
25080;BME280;13071;48.868;9.996;2022-12-18T12:13:11;97674.03;;;-4.01;83.95
25080;BME280;13071;48.868;9.996;2022-12-18T12:15:48;97670.28;;;-3.86;83.06
25080;BME280;13071;48.868;9.996;2022-12-18T12:18:28;97668.38;;;-3.73;82.69
25080;BME280;13071;48.868;9.996;2022-12-18T12:21:04;97672.13;;;-3.87;83.03
25080;BME280;13071;48.868;9.996;2022-12-18T12:23:39;97665.72;;;-4.04;83.55
25080;BME280;13071;48.868;9.996;2022-12-18T12:26:11;97656.00;;;-4.10;84.62
25080;BME280;13071;48.868;9.996;2022-12-18T12:28:55;97655.19;;;-4.11;85.46
25080;BME280;13071;48.868;9.996;2022-12-18T12:31:33;97642.13;;;-4.06;84.40
25080;BME280;13071;48.868;9.996;2022-12-18T12:34:10;97646.53;;;-4.24;84.58
25080;BME280;13071;48.868;9.996;2022-12-18T12:36:51;97653.81;;;-4.20;86.07
25080;BME280;13071;48.868;9.996;2022-12-18T12:39:22;97658.53;;;-3.90;84.65
25080;BME280;13071;48.868;9.996;2022-12-18T12:41:58;97654.84;;;-3.89;84.41
25080;BME280;13071;48.868;9.996;2022-12-18T12:44:45;97652.19;;;-3.89;85.04
25080;BME280;13071;48.868;9.996;2022-12-18T12:47:18;97653.94;;;-4.08;85.42
25080;BME280;13071;48.868;9.996;2022-12-18T12:49:47;97648.66;;;-4.08;85.95
25080;BME280;13071;48.868;9.996;2022-12-18T12:52:27;97646.06;;;-4.15;85.17
25080;BME280;13071;48.868;9.996;2022-12-18T12:54:57;97656.47;;;-4.20;84.98
25080;BME280;13071;48.868;9.996;2022-12-18T12:57:30;97664.50;;;-4.02;85.31
25080;BME280;13071;48.868;9.996;2022-12-18T13:00:01;97664.91;;;-3.73;84.41
25080;BME280;13071;48.868;9.996;2022-12-18T13:02:34;97655.25;;;-3.86;83.84
25080;BME280;13071;48.868;9.996;2022-12-18T13:05:06;97651.44;;;-3.97;84.41
25080;BME280;13071;48.868;9.996;2022-12-18T13:07:40;97647.38;;;-3.99;84.80
25080;BME280;13071;48.868;9.996;2022-12-18T13:12:57;97643.34;;;-4.02;84.82
25080;BME280;13071;48.868;9.996;2022-12-18T13:15:27;97641.41;;;-3.88;84.79
25080;BME280;13071;48.868;9.996;2022-12-18T13:18:11;97641.53;;;-3.76;83.88